sensor_id;sensor_type;location;lat;lon;timestamp;P1;durP1;ratioP1;P2;durP2;ratioP2
30647;SDS011;17683;53.360;9.736;2022-07-18T00:01:45;6.80;;;3.53;;
30647;SDS011;17683;53.360;9.736;2022-07-18T00:04:11;5.07;;;3.08;;
30647;SDS011;17683;53.360;9.736;2022-07-18T00:06:37;3.55;;;2.88;;
30647;SDS011;17683;53.360;9.736;2022-07-18T00:09:03;3.55;;;3.05;;
30647;SDS011;17683;53.360;9.736;2022-07-18T00:11:29;4.60;;;2.67;;
30647;SDS011;17683;53.360;9.736;2022-07-18T00:13:55;3.75;;;3.17;;
30647;SDS011;17683;53.360;9.736;2022-07-18T00:16:21;3.58;;;2.97;;
30647;SDS011;17683;53.360;9.736;2022-07-18T00:18:48;6.15;;;3.05;;
30647;SDS011;17683;53.360;9.736;2022-07-18T00:21:14;2.90;;;2.50;;
30647;SDS011;17683;53.360;9.736;2022-07-18T00:23:40;4.05;;;3.13;;
30647;SDS011;17683;53.360;9.736;2022-07-18T00:26:06;4.10;;;2.83;;
30647;SDS011;17683;53.360;9.736;2022-07-18T00:28:32;6.57;;;3.00;;
30647;SDS011;17683;53.360;9.736;2022-07-18T00:30:58;5.43;;;3.05;;
30647;SDS011;17683;53.360;9.736;2022-07-18T00:33:23;4.22;;;2.58;;
30647;SDS011;17683;53.360;9.736;2022-07-18T00:35:49;3.35;;;2.80;;
30647;SDS011;17683;53.360;9.736;2022-07-18T00:38:15;5.30;;;2.90;;
30647;SDS011;17683;53.360;9.736;2022-07-18T00:40:41;5.13;;;3.00;;
30647;SDS011;17683;53.360;9.736;2022-07-18T00:43:07;8.52;;;3.33;;
30647;SDS011;17683;53.360;9.736;2022-07-18T00:45:33;3.70;;;2.85;;
30647;SDS011;17683;53.360;9.736;2022-07-18T00:47:58;4.20;;;3.30;;
30647;SDS011;17683;53.360;9.736;2022-07-18T00:50:29;5.03;;;3.22;;
30647;SDS011;17683;53.360;9.736;2022-07-18T00:52:55;3.58;;;3.03;;
30647;SDS011;17683;53.360;9.736;2022-07-18T00:55:20;3.65;;;2.75;;
30647;SDS011;17683;53.360;9.736;2022-07-18T00:57:46;4.07;;;2.53;;
30647;SDS011;17683;53.360;9.736;2022-07-18T01:00:13;3.45;;;2.70;;
30647;SDS011;17683;53.360;9.736;2022-07-18T01:02:58;4.82;;;3.10;;
30647;SDS011;17683;53.360;9.736;2022-07-18T01:05:24;4.78;;;3.17;;
30647;SDS011;17683;53.360;9.736;2022-07-18T01:07:50;4.35;;;2.92;;
30647;SDS011;17683;53.360;9.736;2022-07-18T01:10:18;5.47;;;3.35;;
30647;SDS011;17683;53.360;9.736;2022-07-18T01:12:44;4.10;;;2.90;;
30647;SDS011;17683;53.360;9.736;2022-07-18T01:15:11;5.10;;;3.47;;
30647;SDS011;17683;53.360;9.736;2022-07-18T01:17:37;2.95;;;2.70;;
30647;SDS011;17683;53.360;9.736;2022-07-18T01:20:03;5.90;;;3.33;;
30647;SDS011;17683;53.360;9.736;2022-07-18T01:22:30;4.82;;;2.95;;
30647;SDS011;17683;53.360;9.736;2022-07-18T01:24:56;4.90;;;3.58;;
30647;SDS011;17683;53.360;9.736;2022-07-18T01:27:22;4.47;;;2.90;;
30647;SDS011;17683;53.360;9.736;2022-07-18T01:29:49;4.57;;;2.85;;
30647;SDS011;17683;53.360;9.736;2022-07-18T01:32:16;3.22;;;2.90;;
30647;SDS011;17683;53.360;9.736;2022-07-18T01:34:42;3.53;;;3.22;;
30647;SDS011;17683;53.360;9.736;2022-07-18T01:37:10;4.50;;;2.95;;
30647;SDS011;17683;53.360;9.736;2022-07-18T01:39:36;3.63;;;3.28;;
30647;SDS011;17683;53.360;9.736;2022-07-18T01:42:03;3.20;;;2.63;;
30647;SDS011;17683;53.360;9.736;2022-07-18T01:44:32;6.22;;;3.30;;
30647;SDS011;17683;53.360;9.736;2022-07-18T01:46:59;4.93;;;3.25;;
30647;SDS011;17683;53.360;9.736;2022-07-18T01:49:26;4.53;;;3.30;;
30647;SDS011;17683;53.360;9.736;2022-07-18T01:51:52;3.75;;;2.58;;
30647;SDS011;17683;53.360;9.736;2022-07-18T01:54:19;4.05;;;3.10;;
30647;SDS011;17683;53.360;9.736;2022-07-18T01:56:46;3.45;;;2.70;;
30647;SDS011;17683;53.360;9.736;2022-07-18T01:59:12;4.82;;;3.00;;
30647;SDS011;17683;53.360;9.736;2022-07-18T02:01:38;3.80;;;3.08;;
30647;SDS011;17683;53.360;9.736;2022-07-18T02:04:03;4.53;;;2.97;;
30647;SDS011;17683;53.360;9.736;2022-07-18T02:06:29;4.22;;;2.58;;
30647;SDS011;17683;53.360;9.736;2022-07-18T02:08:55;3.20;;;2.90;;
30647;SDS011;17683;53.360;9.736;2022-07-18T02:11:21;4.07;;;2.90;;
30647;SDS011;17683;53.360;9.736;2022-07-18T02:13:47;4.00;;;3.00;;
30647;SDS011;17683;53.360;9.736;2022-07-18T02:16:13;8.07;;;2.90;;
30647;SDS011;17683;53.360;9.736;2022-07-18T02:18:39;5.00;;;3.72;;
30647;SDS011;17683;53.360;9.736;2022-07-18T02:21:04;5.53;;;3.63;;
30647;SDS011;17683;53.360;9.736;2022-07-18T02:23:32;4.05;;;2.75;;
30647;SDS011;17683;53.360;9.736;2022-07-18T02:25:58;3.53;;;3.17;;
30647;SDS011;17683;53.360;9.736;2022-07-18T02:28:24;4.65;;;3.15;;
30647;SDS011;17683;53.360;9.736;2022-07-18T02:30:50;4.15;;;3.35;;
30647;SDS011;17683;53.360;9.736;2022-07-18T02:33:16;3.30;;;2.97;;
30647;SDS011;17683;53.360;9.736;2022-07-18T02:35:42;6.78;;;3.80;;
30647;SDS011;17683;53.360;9.736;2022-07-18T02:38:08;4.22;;;3.03;;
30647;SDS011;17683;53.360;9.736;2022-07-18T02:40:34;4.38;;;3.50;;
30647;SDS011;17683;53.360;9.736;2022-07-18T02:43:00;8.23;;;3.72;;
30647;SDS011;17683;53.360;9.736;2022-07-18T02:45:26;3.92;;;3.58;;
30647;SDS011;17683;53.360;9.736;2022-07-18T02:47:52;3.83;;;3.35;;
30647;SDS011;17683;53.360;9.736;2022-07-18T02:50:18;5.05;;;3.42;;
30647;SDS011;17683;53.360;9.736;2022-07-18T02:52:44;7.18;;;4.10;;
30647;SDS011;17683;53.360;9.736;2022-07-18T02:55:11;3.70;;;3.40;;
30647;SDS011;17683;53.360;9.736;2022-07-18T02:57:38;6.22;;;3.65;;
30647;SDS011;17683;53.360;9.736;2022-07-18T03:00:04;4.32;;;3.58;;
30647;SDS011;17683;53.360;9.736;2022-07-18T03:02:32;5.82;;;3.67;;
30647;SDS011;17683;53.360;9.736;2022-07-18T03:04:58;4.28;;;3.83;;
30647;SDS011;17683;53.360;9.736;2022-07-18T03:07:23;4.57;;;3.70;;
30647;SDS011;17683;53.360;9.736;2022-07-18T03:09:49;6.97;;;3.67;;
30647;SDS011;17683;53.360;9.736;2022-07-18T03:12:16;6.18;;;3.60;;
30647;SDS011;17683;53.360;9.736;2022-07-18T03:14:42;5.82;;;3.22;;
30647;SDS011;17683;53.360;9.736;2022-07-18T03:17:08;8.25;;;4.07;;
30647;SDS011;17683;53.360;9.736;2022-07-18T03:19:33;6.32;;;3.78;;
30647;SDS011;17683;53.360;9.736;2022-07-18T03:21:59;7.22;;;3.45;;
30647;SDS011;17683;53.360;9.736;2022-07-18T03:24:25;4.70;;;3.30;;
30647;SDS011;17683;53.360;9.736;2022-07-18T03:26:51;4.65;;;3.53;;
30647;SDS011;17683;53.360;9.736;2022-07-18T03:29:17;3.65;;;3.35;;
30647;SDS011;17683;53.360;9.736;2022-07-18T03:31:43;6.18;;;3.95;;
30647;SDS011;17683;53.360;9.736;2022-07-18T03:34:09;3.67;;;3.35;;
30647;SDS011;17683;53.360;9.736;2022-07-18T03:36:34;3.75;;;3.45;;
30647;SDS011;17683;53.360;9.736;2022-07-18T03:39:00;4.65;;;3.72;;
30647;SDS011;17683;53.360;9.736;2022-07-18T03:41:27;7.07;;;3.58;;
30647;SDS011;17683;53.360;9.736;2022-07-18T03:43:52;6.38;;;3.60;;
30647;SDS011;17683;53.360;9.736;2022-07-18T03:46:18;6.35;;;4.03;;
30647;SDS011;17683;53.360;9.736;2022-07-18T03:48:44;5.72;;;3.47;;
30647;SDS011;17683;53.360;9.736;2022-07-18T03:51:09;4.10;;;3.40;;
30647;SDS011;17683;53.360;9.736;2022-07-18T03:53:35;5.53;;;3.63;;
30647;SDS011;17683;53.360;9.736;2022-07-18T03:56:01;5.47;;;4.25;;
30647;SDS011;17683;53.360;9.736;2022-07-18T03:58:27;4.30;;;3.60;;
30647;SDS011;17683;53.360;9.736;2022-07-18T04:00:53;4.93;;;3.50;;
30647;SDS011;17683;53.360;9.736;2022-07-18T04:03:19;4.68;;;3.53;;
30647;SDS011;17683;53.360;9.736;2022-07-18T04:05:45;5.88;;;3.75;;
30647;SDS011;17683;53.360;9.736;2022-07-18T04:08:10;5.40;;;3.92;;
30647;SDS011;17683;53.360;9.736;2022-07-18T04:10:36;3.97;;;3.55;;
30647;SDS011;17683;53.360;9.736;2022-07-18T04:13:05;5.32;;;3.63;;
30647;SDS011;17683;53.360;9.736;2022-07-18T04:15:32;4.30;;;3.90;;
30647;SDS011;17683;53.360;9.736;2022-07-18T04:17:58;5.68;;;3.92;;
30647;SDS011;17683;53.360;9.736;2022-07-18T04:20:24;4.82;;;3.55;;
30647;SDS011;17683;53.360;9.736;2022-07-18T04:22:52;9.15;;;4.18;;
30647;SDS011;17683;53.360;9.736;2022-07-18T04:25:19;5.75;;;3.22;;
30647;SDS011;17683;53.360;9.736;2022-07-18T04:27:47;7.40;;;3.92;;
30647;SDS011;17683;53.360;9.736;2022-07-18T04:30:14;5.88;;;4.05;;
30647;SDS011;17683;53.360;9.736;2022-07-18T04:32:41;6.05;;;3.95;;
30647;SDS011;17683;53.360;9.736;2022-07-18T04:35:07;5.72;;;4.28;;
30647;SDS011;17683;53.360;9.736;2022-07-18T04:37:34;4.82;;;3.83;;
30647;SDS011;17683;53.360;9.736;2022-07-18T04:40:01;10.40;;;4.65;;
30647;SDS011;17683;53.360;9.736;2022-07-18T04:42:27;5.03;;;4.03;;
30647;SDS011;17683;53.360;9.736;2022-07-18T04:44:52;4.53;;;3.70;;
30647;SDS011;17683;53.360;9.736;2022-07-18T04:47:18;4.22;;;3.40;;
30647;SDS011;17683;53.360;9.736;2022-07-18T04:49:44;5.93;;;4.45;;
30647;SDS011;17683;53.360;9.736;2022-07-18T04:52:10;6.32;;;4.28;;
30647;SDS011;17683;53.360;9.736;2022-07-18T04:54:36;4.32;;;3.70;;
30647;SDS011;17683;53.360;9.736;2022-07-18T04:57:01;7.85;;;4.15;;
30647;SDS011;17683;53.360;9.736;2022-07-18T04:59:27;6.63;;;4.53;;
30647;SDS011;17683;53.360;9.736;2022-07-18T05:01:53;7.35;;;4.20;;
30647;SDS011;17683;53.360;9.736;2022-07-18T05:04:18;7.25;;;4.40;;
30647;SDS011;17683;53.360;9.736;2022-07-18T05:06:44;7.22;;;4.53;;
30647;SDS011;17683;53.360;9.736;2022-07-18T05:09:10;6.35;;;4.40;;
30647;SDS011;17683;53.360;9.736;2022-07-18T05:11:35;6.75;;;4.63;;
30647;SDS011;17683;53.360;9.736;2022-07-18T05:14:01;5.82;;;4.15;;
30647;SDS011;17683;53.360;9.736;2022-07-18T05:16:27;6.85;;;5.32;;
30647;SDS011;17683;53.360;9.736;2022-07-18T05:18:53;8.27;;;4.72;;
30647;SDS011;17683;53.360;9.736;2022-07-18T05:21:19;4.85;;;4.32;;
30647;SDS011;17683;53.360;9.736;2022-07-18T05:23:44;6.18;;;3.80;;
30647;SDS011;17683;53.360;9.736;2022-07-18T05:26:10;7.47;;;3.97;;
30647;SDS011;17683;53.360;9.736;2022-07-18T05:28:37;8.43;;;4.40;;
30647;SDS011;17683;53.360;9.736;2022-07-18T05:31:03;5.68;;;4.32;;
30647;SDS011;17683;53.360;9.736;2022-07-18T05:33:28;6.80;;;4.00;;
30647;SDS011;17683;53.360;9.736;2022-07-18T05:35:54;6.15;;;4.10;;
30647;SDS011;17683;53.360;9.736;2022-07-18T05:38:20;5.35;;;4.55;;
30647;SDS011;17683;53.360;9.736;2022-07-18T05:40:46;5.72;;;4.13;;
30647;SDS011;17683;53.360;9.736;2022-07-18T05:43:12;8.10;;;4.50;;
30647;SDS011;17683;53.360;9.736;2022-07-18T05:45:37;6.88;;;4.47;;
30647;SDS011;17683;53.360;9.736;2022-07-18T05:48:03;6.50;;;3.88;;
30647;SDS011;17683;53.360;9.736;2022-07-18T05:50:30;4.55;;;4.00;;
30647;SDS011;17683;53.360;9.736;2022-07-18T05:52:56;6.90;;;4.32;;
30647;SDS011;17683;53.360;9.736;2022-07-18T05:55:22;6.97;;;3.90;;
30647;SDS011;17683;53.360;9.736;2022-07-18T05:57:48;5.35;;;3.75;;
30647;SDS011;17683;53.360;9.736;2022-07-18T06:00:14;6.80;;;4.47;;
30647;SDS011;17683;53.360;9.736;2022-07-18T06:02:41;4.88;;;3.75;;
30647;SDS011;17683;53.360;9.736;2022-07-18T06:05:07;5.50;;;3.78;;
30647;SDS011;17683;53.360;9.736;2022-07-18T06:07:34;5.28;;;3.95;;
30647;SDS011;17683;53.360;9.736;2022-07-18T06:10:00;5.72;;;3.70;;
30647;SDS011;17683;53.360;9.736;2022-07-18T06:12:29;5.70;;;3.80;;
30647;SDS011;17683;53.360;9.736;2022-07-18T06:14:56;5.28;;;3.45;;
30647;SDS011;17683;53.360;9.736;2022-07-18T06:17:22;5.32;;;3.97;;
30647;SDS011;17683;53.360;9.736;2022-07-18T06:19:48;8.93;;;3.90;;
30647;SDS011;17683;53.360;9.736;2022-07-18T06:22:14;4.60;;;3.45;;
30647;SDS011;17683;53.360;9.736;2022-07-18T06:24:39;5.88;;;3.65;;
30647;SDS011;17683;53.360;9.736;2022-07-18T06:27:08;8.18;;;3.67;;
30647;SDS011;17683;53.360;9.736;2022-07-18T06:29:34;4.15;;;3.30;;
30647;SDS011;17683;53.360;9.736;2022-07-18T06:31:59;4.65;;;3.67;;
30647;SDS011;17683;53.360;9.736;2022-07-18T06:34:25;4.30;;;3.70;;
30647;SDS011;17683;53.360;9.736;2022-07-18T06:36:51;4.88;;;3.20;;
30647;SDS011;17683;53.360;9.736;2022-07-18T06:39:17;5.90;;;3.60;;
30647;SDS011;17683;53.360;9.736;2022-07-18T06:41:43;6.57;;;3.72;;
30647;SDS011;17683;53.360;9.736;2022-07-18T06:44:10;5.30;;;3.65;;
30647;SDS011;17683;53.360;9.736;2022-07-18T06:46:36;6.97;;;3.70;;
30647;SDS011;17683;53.360;9.736;2022-07-18T06:49:02;7.88;;;4.25;;
30647;SDS011;17683;53.360;9.736;2022-07-18T06:51:28;6.50;;;3.28;;
30647;SDS011;17683;53.360;9.736;2022-07-18T06:53:54;4.60;;;3.75;;
30647;SDS011;17683;53.360;9.736;2022-07-18T06:56:20;4.32;;;3.70;;
30647;SDS011;17683;53.360;9.736;2022-07-18T06:58:46;4.88;;;3.50;;
30647;SDS011;17683;53.360;9.736;2022-07-18T07:01:15;4.43;;;3.15;;
30647;SDS011;17683;53.360;9.736;2022-07-18T07:03:41;3.88;;;3.35;;
30647;SDS011;17683;53.360;9.736;2022-07-18T07:06:07;6.82;;;3.65;;
30647;SDS011;17683;53.360;9.736;2022-07-18T07:08:33;7.22;;;3.55;;
30647;SDS011;17683;53.360;9.736;2022-07-18T07:10:59;4.38;;;3.47;;
30647;SDS011;17683;53.360;9.736;2022-07-18T07:13:25;6.18;;;3.05;;
30647;SDS011;17683;53.360;9.736;2022-07-18T07:15:51;6.50;;;3.30;;
30647;SDS011;17683;53.360;9.736;2022-07-18T07:18:17;5.28;;;3.33;;
30647;SDS011;17683;53.360;9.736;2022-07-18T07:20:42;5.45;;;3.20;;
30647;SDS011;17683;53.360;9.736;2022-07-18T07:23:08;4.53;;;3.70;;
30647;SDS011;17683;53.360;9.736;2022-07-18T07:25:34;6.47;;;3.47;;
30647;SDS011;17683;53.360;9.736;2022-07-18T07:28:01;5.70;;;3.13;;
30647;SDS011;17683;53.360;9.736;2022-07-18T07:30:28;4.63;;;3.45;;
30647;SDS011;17683;53.360;9.736;2022-07-18T07:32:54;4.07;;;2.80;;
30647;SDS011;17683;53.360;9.736;2022-07-18T07:35:20;6.68;;;3.55;;
30647;SDS011;17683;53.360;9.736;2022-07-18T07:37:48;6.07;;;3.70;;
30647;SDS011;17683;53.360;9.736;2022-07-18T07:40:15;5.88;;;3.38;;
30647;SDS011;17683;53.360;9.736;2022-07-18T07:42:42;4.25;;;3.05;;
30647;SDS011;17683;53.360;9.736;2022-07-18T07:45:08;5.32;;;3.20;;
30647;SDS011;17683;53.360;9.736;2022-07-18T07:47:35;6.82;;;3.13;;
30647;SDS011;17683;53.360;9.736;2022-07-18T07:50:02;5.45;;;3.25;;
30647;SDS011;17683;53.360;9.736;2022-07-18T07:52:29;5.05;;;3.00;;
30647;SDS011;17683;53.360;9.736;2022-07-18T07:54:55;4.97;;;3.08;;
30647;SDS011;17683;53.360;9.736;2022-07-18T07:57:21;3.55;;;2.78;;
30647;SDS011;17683;53.360;9.736;2022-07-18T07:59:47;4.45;;;3.45;;
30647;SDS011;17683;53.360;9.736;2022-07-18T08:02:12;6.53;;;2.45;;
30647;SDS011;17683;53.360;9.736;2022-07-18T08:04:40;6.80;;;2.55;;
30647;SDS011;17683;53.360;9.736;2022-07-18T08:07:06;5.32;;;2.10;;
30647;SDS011;17683;53.360;9.736;2022-07-18T08:09:33;3.30;;;2.20;;
30647;SDS011;17683;53.360;9.736;2022-07-18T08:11:59;4.03;;;2.28;;
30647;SDS011;17683;53.360;9.736;2022-07-18T08:14:25;4.45;;;2.13;;
30647;SDS011;17683;53.360;9.736;2022-07-18T08:16:50;4.75;;;2.38;;
30647;SDS011;17683;53.360;9.736;2022-07-18T08:19:16;3.80;;;2.05;;
30647;SDS011;17683;53.360;9.736;2022-07-18T08:21:42;4.03;;;2.13;;
30647;SDS011;17683;53.360;9.736;2022-07-18T08:24:08;8.07;;;2.45;;
30647;SDS011;17683;53.360;9.736;2022-07-18T08:26:33;2.95;;;1.85;;
30647;SDS011;17683;53.360;9.736;2022-07-18T08:29:00;3.95;;;2.05;;
30647;SDS011;17683;53.360;9.736;2022-07-18T08:31:27;4.10;;;2.00;;
30647;SDS011;17683;53.360;9.736;2022-07-18T08:33:53;3.75;;;1.80;;
30647;SDS011;17683;53.360;9.736;2022-07-18T08:36:19;8.15;;;2.30;;
30647;SDS011;17683;53.360;9.736;2022-07-18T08:38:45;4.65;;;2.00;;
30647;SDS011;17683;53.360;9.736;2022-07-18T08:41:11;4.47;;;2.20;;
30647;SDS011;17683;53.360;9.736;2022-07-18T08:43:37;3.88;;;2.15;;
30647;SDS011;17683;53.360;9.736;2022-07-18T08:46:04;4.28;;;2.38;;
30647;SDS011;17683;53.360;9.736;2022-07-18T08:48:31;5.35;;;2.40;;
30647;SDS011;17683;53.360;9.736;2022-07-18T08:50:58;3.00;;;2.65;;
30647;SDS011;17683;53.360;9.736;2022-07-18T08:53:24;3.85;;;2.17;;
30647;SDS011;17683;53.360;9.736;2022-07-18T08:55:51;4.20;;;2.58;;
30647;SDS011;17683;53.360;9.736;2022-07-18T08:58:16;4.93;;;2.88;;
30647;SDS011;17683;53.360;9.736;2022-07-18T09:00:43;4.80;;;2.75;;
30647;SDS011;17683;53.360;9.736;2022-07-18T09:03:09;4.53;;;2.90;;
30647;SDS011;17683;53.360;9.736;2022-07-18T09:05:36;4.28;;;2.47;;
30647;SDS011;17683;53.360;9.736;2022-07-18T09:08:12;5.07;;;2.50;;
30647;SDS011;17683;53.360;9.736;2022-07-18T09:10:49;6.03;;;3.33;;
30647;SDS011;17683;53.360;9.736;2022-07-18T09:13:17;4.88;;;2.85;;
30647;SDS011;17683;53.360;9.736;2022-07-18T09:16:00;4.88;;;3.35;;
30647;SDS011;17683;53.360;9.736;2022-07-18T09:18:32;7.75;;;3.28;;
30647;SDS011;17683;53.360;9.736;2022-07-18T09:20:59;6.38;;;3.28;;
30647;SDS011;17683;53.360;9.736;2022-07-18T09:23:30;8.65;;;3.05;;
30647;SDS011;17683;53.360;9.736;2022-07-18T09:25:57;4.70;;;2.90;;
30647;SDS011;17683;53.360;9.736;2022-07-18T09:28:25;5.95;;;3.65;;
30647;SDS011;17683;53.360;9.736;2022-07-18T09:31:18;6.90;;;3.53;;
30647;SDS011;17683;53.360;9.736;2022-07-18T09:34:00;5.50;;;3.75;;
30647;SDS011;17683;53.360;9.736;2022-07-18T09:36:27;9.73;;;4.60;;
30647;SDS011;17683;53.360;9.736;2022-07-18T09:38:54;5.60;;;3.72;;
30647;SDS011;17683;53.360;9.736;2022-07-18T09:41:26;5.10;;;3.85;;
30647;SDS011;17683;53.360;9.736;2022-07-18T09:43:55;6.25;;;3.90;;
30647;SDS011;17683;53.360;9.736;2022-07-18T09:46:21;7.05;;;3.88;;
30647;SDS011;17683;53.360;9.736;2022-07-18T09:48:47;4.88;;;3.33;;
30647;SDS011;17683;53.360;9.736;2022-07-18T09:51:32;5.93;;;3.80;;
30647;SDS011;17683;53.360;9.736;2022-07-18T09:53:58;5.07;;;3.78;;
30647;SDS011;17683;53.360;9.736;2022-07-18T09:56:26;8.02;;;3.75;;
30647;SDS011;17683;53.360;9.736;2022-07-18T09:58:53;4.25;;;3.50;;
30647;SDS011;17683;53.360;9.736;2022-07-18T10:01:20;5.95;;;4.10;;
30647;SDS011;17683;53.360;9.736;2022-07-18T10:03:47;5.38;;;3.78;;
30647;SDS011;17683;53.360;9.736;2022-07-18T10:06:14;6.05;;;4.10;;
30647;SDS011;17683;53.360;9.736;2022-07-18T10:08:40;9.38;;;4.80;;
30647;SDS011;17683;53.360;9.736;2022-07-18T10:11:06;6.28;;;4.97;;
30647;SDS011;17683;53.360;9.736;2022-07-18T10:13:33;6.32;;;4.45;;
30647;SDS011;17683;53.360;9.736;2022-07-18T10:15:59;4.65;;;4.10;;
30647;SDS011;17683;53.360;9.736;2022-07-18T10:18:27;6.90;;;4.60;;
30647;SDS011;17683;53.360;9.736;2022-07-18T10:21:12;6.47;;;4.82;;
30647;SDS011;17683;53.360;9.736;2022-07-18T10:23:40;5.82;;;4.43;;
30647;SDS011;17683;53.360;9.736;2022-07-18T10:26:12;5.15;;;4.20;;
30647;SDS011;17683;53.360;9.736;2022-07-18T10:31:28;9.02;;;5.43;;
30647;SDS011;17683;53.360;9.736;2022-07-18T10:36:29;7.93;;;4.85;;
30647;SDS011;17683;53.360;9.736;2022-07-18T10:41:34;10.63;;;5.53;;
30647;SDS011;17683;53.360;9.736;2022-07-18T10:57:42;5.72;;;4.75;;
30647;SDS011;17683;53.360;9.736;2022-07-18T11:00:35;7.00;;;4.75;;
30647;SDS011;17683;53.360;9.736;2022-07-18T11:03:03;6.55;;;5.05;;
30647;SDS011;17683;53.360;9.736;2022-07-18T11:05:32;6.53;;;4.75;;
30647;SDS011;17683;53.360;9.736;2022-07-18T11:16:08;8.13;;;5.10;;
30647;SDS011;17683;53.360;9.736;2022-07-18T11:21:21;5.50;;;4.70;;
30647;SDS011;17683;53.360;9.736;2022-07-18T11:23:49;5.28;;;4.78;;
30647;SDS011;17683;53.360;9.736;2022-07-18T11:26:17;8.18;;;4.22;;
30647;SDS011;17683;53.360;9.736;2022-07-18T11:28:48;7.90;;;4.38;;
30647;SDS011;17683;53.360;9.736;2022-07-18T11:31:23;8.48;;;4.45;;
30647;SDS011;17683;53.360;9.736;2022-07-18T11:33:50;7.57;;;4.53;;
30647;SDS011;17683;53.360;9.736;2022-07-18T11:36:17;4.00;;;3.60;;
30647;SDS011;17683;53.360;9.736;2022-07-18T11:38:52;5.22;;;3.70;;
30647;SDS011;17683;53.360;9.736;2022-07-18T11:41:20;4.45;;;3.83;;
30647;SDS011;17683;53.360;9.736;2022-07-18T11:43:46;4.22;;;3.83;;
30647;SDS011;17683;53.360;9.736;2022-07-18T11:46:14;9.20;;;3.80;;
30647;SDS011;17683;53.360;9.736;2022-07-18T11:48:41;6.05;;;4.20;;
30647;SDS011;17683;53.360;9.736;2022-07-18T11:51:11;7.22;;;4.50;;
30647;SDS011;17683;53.360;9.736;2022-07-18T11:53:43;4.15;;;3.35;;
30647;SDS011;17683;53.360;9.736;2022-07-18T11:56:10;5.32;;;3.60;;
30647;SDS011;17683;53.360;9.736;2022-07-18T11:58:37;7.05;;;3.13;;
30647;SDS011;17683;53.360;9.736;2022-07-18T12:01:04;4.85;;;3.95;;
30647;SDS011;17683;53.360;9.736;2022-07-18T12:03:31;6.07;;;3.13;;
30647;SDS011;17683;53.360;9.736;2022-07-18T12:06:03;3.63;;;2.97;;
30647;SDS011;17683;53.360;9.736;2022-07-18T12:08:43;4.57;;;3.00;;
30647;SDS011;17683;53.360;9.736;2022-07-18T12:19:09;4.47;;;2.97;;
30647;SDS011;17683;53.360;9.736;2022-07-18T12:21:43;3.70;;;2.90;;
30647;SDS011;17683;53.360;9.736;2022-07-18T12:24:17;4.22;;;3.03;;
30647;SDS011;17683;53.360;9.736;2022-07-18T12:26:43;4.43;;;3.15;;
30647;SDS011;17683;53.360;9.736;2022-07-18T12:29:09;4.93;;;2.92;;
30647;SDS011;17683;53.360;9.736;2022-07-18T12:34:23;4.47;;;2.85;;
30647;SDS011;17683;53.360;9.736;2022-07-18T12:36:53;6.50;;;2.83;;
30647;SDS011;17683;53.360;9.736;2022-07-18T12:39:32;4.07;;;2.88;;
30647;SDS011;17683;53.360;9.736;2022-07-18T12:41:58;3.58;;;3.13;;
30647;SDS011;17683;53.360;9.736;2022-07-18T12:44:26;4.50;;;2.90;;
30647;SDS011;17683;53.360;9.736;2022-07-18T12:46:53;5.50;;;3.20;;
30647;SDS011;17683;53.360;9.736;2022-07-18T12:49:20;5.15;;;2.90;;
30647;SDS011;17683;53.360;9.736;2022-07-18T12:51:46;4.30;;;3.13;;
30647;SDS011;17683;53.360;9.736;2022-07-18T12:54:12;5.50;;;3.63;;
30647;SDS011;17683;53.360;9.736;2022-07-18T12:56:38;6.13;;;3.38;;
30647;SDS011;17683;53.360;9.736;2022-07-18T12:59:04;5.70;;;2.92;;
30647;SDS011;17683;53.360;9.736;2022-07-18T13:01:31;4.80;;;3.40;;
30647;SDS011;17683;53.360;9.736;2022-07-18T13:03:57;4.30;;;3.10;;
30647;SDS011;17683;53.360;9.736;2022-07-18T13:06:22;5.10;;;3.72;;
30647;SDS011;17683;53.360;9.736;2022-07-18T13:08:48;5.00;;;3.10;;
30647;SDS011;17683;53.360;9.736;2022-07-18T13:11:14;6.10;;;3.50;;
30647;SDS011;17683;53.360;9.736;2022-07-18T13:13:40;3.80;;;3.17;;
30647;SDS011;17683;53.360;9.736;2022-07-18T13:16:05;6.38;;;3.47;;
30647;SDS011;17683;53.360;9.736;2022-07-18T13:18:31;11.95;;;3.40;;
30647;SDS011;17683;53.360;9.736;2022-07-18T13:20:57;5.38;;;3.58;;
30647;SDS011;17683;53.360;9.736;2022-07-18T13:23:23;3.60;;;3.30;;
30647;SDS011;17683;53.360;9.736;2022-07-18T13:25:48;5.05;;;3.47;;
30647;SDS011;17683;53.360;9.736;2022-07-18T13:28:14;5.57;;;3.88;;
30647;SDS011;17683;53.360;9.736;2022-07-18T13:30:40;4.00;;;3.03;;
30647;SDS011;17683;53.360;9.736;2022-07-18T13:33:06;3.90;;;3.47;;
30647;SDS011;17683;53.360;9.736;2022-07-18T13:35:32;3.40;;;3.00;;
30647;SDS011;17683;53.360;9.736;2022-07-18T13:37:58;5.38;;;3.33;;
30647;SDS011;17683;53.360;9.736;2022-07-18T13:40:24;7.78;;;4.00;;
30647;SDS011;17683;53.360;9.736;2022-07-18T13:42:50;5.53;;;4.15;;
30647;SDS011;17683;53.360;9.736;2022-07-18T13:45:15;4.43;;;4.03;;
30647;SDS011;17683;53.360;9.736;2022-07-18T13:47:42;5.50;;;4.25;;
30647;SDS011;17683;53.360;9.736;2022-07-18T13:50:09;4.50;;;3.70;;
30647;SDS011;17683;53.360;9.736;2022-07-18T13:52:36;5.15;;;4.20;;
30647;SDS011;17683;53.360;9.736;2022-07-18T13:55:01;4.72;;;4.05;;
30647;SDS011;17683;53.360;9.736;2022-07-18T13:57:28;5.78;;;4.18;;
30647;SDS011;17683;53.360;9.736;2022-07-18T13:59:54;5.03;;;4.25;;
30647;SDS011;17683;53.360;9.736;2022-07-18T14:02:20;5.57;;;3.72;;
30647;SDS011;17683;53.360;9.736;2022-07-18T14:04:46;6.35;;;4.28;;
30647;SDS011;17683;53.360;9.736;2022-07-18T14:07:12;5.95;;;4.40;;
30647;SDS011;17683;53.360;9.736;2022-07-18T14:09:42;4.70;;;3.80;;
30647;SDS011;17683;53.360;9.736;2022-07-18T14:12:08;6.32;;;4.43;;
30647;SDS011;17683;53.360;9.736;2022-07-18T14:14:34;4.70;;;4.20;;
30647;SDS011;17683;53.360;9.736;2022-07-18T14:17:00;5.15;;;4.55;;
30647;SDS011;17683;53.360;9.736;2022-07-18T14:19:25;5.75;;;4.55;;
30647;SDS011;17683;53.360;9.736;2022-07-18T14:21:51;9.48;;;4.63;;
30647;SDS011;17683;53.360;9.736;2022-07-18T14:24:17;5.93;;;4.85;;
30647;SDS011;17683;53.360;9.736;2022-07-18T14:26:42;5.95;;;4.57;;
30647;SDS011;17683;53.360;9.736;2022-07-18T14:29:08;4.97;;;4.15;;
30647;SDS011;17683;53.360;9.736;2022-07-18T14:31:34;6.00;;;5.03;;
30647;SDS011;17683;53.360;9.736;2022-07-18T14:34:00;5.57;;;4.82;;
30647;SDS011;17683;53.360;9.736;2022-07-18T14:36:26;4.97;;;4.47;;
30647;SDS011;17683;53.360;9.736;2022-07-18T14:38:51;6.78;;;5.38;;
30647;SDS011;17683;53.360;9.736;2022-07-18T14:41:17;5.03;;;4.53;;
30647;SDS011;17683;53.360;9.736;2022-07-18T14:43:43;5.68;;;4.90;;
30647;SDS011;17683;53.360;9.736;2022-07-18T14:46:08;4.60;;;4.13;;
30647;SDS011;17683;53.360;9.736;2022-07-18T14:48:34;7.18;;;5.45;;
30647;SDS011;17683;53.360;9.736;2022-07-18T14:51:00;8.10;;;5.07;;
30647;SDS011;17683;53.360;9.736;2022-07-18T14:53:26;6.72;;;4.95;;
30647;SDS011;17683;53.360;9.736;2022-07-18T14:55:52;5.80;;;5.22;;
30647;SDS011;17683;53.360;9.736;2022-07-18T14:58:18;6.28;;;5.20;;
30647;SDS011;17683;53.360;9.736;2022-07-18T15:00:43;7.18;;;5.40;;
30647;SDS011;17683;53.360;9.736;2022-07-18T15:03:09;6.90;;;5.07;;
30647;SDS011;17683;53.360;9.736;2022-07-18T15:05:35;6.43;;;5.60;;
30647;SDS011;17683;53.360;9.736;2022-07-18T15:08:00;7.25;;;4.93;;
30647;SDS011;17683;53.360;9.736;2022-07-18T15:10:26;6.03;;;5.32;;
30647;SDS011;17683;53.360;9.736;2022-07-18T15:12:52;6.07;;;5.22;;
30647;SDS011;17683;53.360;9.736;2022-07-18T15:15:17;6.68;;;5.40;;
30647;SDS011;17683;53.360;9.736;2022-07-18T15:17:43;6.97;;;5.65;;
30647;SDS011;17683;53.360;9.736;2022-07-18T15:20:09;8.23;;;5.63;;
30647;SDS011;17683;53.360;9.736;2022-07-18T15:22:36;7.10;;;5.82;;
30647;SDS011;17683;53.360;9.736;2022-07-18T15:25:02;6.78;;;5.63;;
30647;SDS011;17683;53.360;9.736;2022-07-18T15:27:28;6.55;;;5.95;;
30647;SDS011;17683;53.360;9.736;2022-07-18T15:29:54;7.97;;;5.57;;